createdAt,value
2022-08-20T00:01:01.517Z,95430.00
2022-08-20T00:03:28.565Z,95422.41
2022-08-20T00:05:56.045Z,95419.75
2022-08-20T00:08:23.214Z,95412.41
2022-08-20T00:10:53.684Z,95414.03
2022-08-20T00:13:21.855Z,95414.81
2022-08-20T00:15:48.219Z,95416.06
2022-08-20T00:18:14.621Z,95415.59
2022-08-20T00:20:41.090Z,95417.19
2022-08-20T00:23:10.504Z,95419.91
2022-08-20T00:25:37.103Z,95416.63
2022-08-20T00:28:03.474Z,95410.09
2022-08-20T00:30:29.829Z,95405.34
2022-08-20T00:32:56.183Z,95405.97
2022-08-20T00:35:22.549Z,95408.88
2022-08-20T00:37:48.940Z,95405.94
2022-08-20T00:40:22.258Z,95406.34
2022-08-20T00:42:49.387Z,95407.94
2022-08-20T00:45:15.757Z,95405.22
2022-08-20T00:47:42.124Z,95412.09
2022-08-20T00:50:17.613Z,95410.06
2022-08-20T00:52:44.029Z,95412.63
2022-08-20T00:55:16.541Z,95407.53
2022-08-20T00:57:56.746Z,95402.09
2022-08-20T01:00:27.961Z,95408.81
2022-08-20T01:02:54.310Z,95406.63
2022-08-20T01:05:20.669Z,95397.38
2022-08-20T01:07:56.066Z,95408.59
2022-08-20T01:10:22.586Z,95405.00
2022-08-20T01:12:48.934Z,95402.09
2022-08-20T01:15:21.897Z,95407.38
2022-08-20T01:17:57.216Z,95402.84
2022-08-20T01:20:23.697Z,95402.97
2022-08-20T01:22:50.056Z,95402.97
2022-08-20T01:25:16.403Z,95401.38
2022-08-20T01:27:43.019Z,95400.09
2022-08-20T01:30:09.426Z,95405.16
2022-08-20T01:32:35.780Z,95394.47
2022-08-20T01:35:02.149Z,95403.16
2022-08-20T01:37:31.682Z,95402.81
2022-08-20T01:39:58.327Z,95406.09
2022-08-20T01:42:24.757Z,95407.53
2022-08-20T01:44:51.101Z,95405.56
2022-08-20T01:47:17.458Z,95405.19
2022-08-20T01:49:44.230Z,95409.47
2022-08-20T01:52:10.578Z,95406.97
2022-08-20T01:54:36.936Z,95404.63
2022-08-20T01:57:03.299Z,95403.88
2022-08-20T01:59:29.668Z,95401.72
2022-08-20T02:01:56.080Z,95396.31
2022-08-20T02:04:22.466Z,95403.16
2022-08-20T02:06:57.253Z,95402.97
2022-08-20T02:09:24.142Z,95395.53
2022-08-20T02:11:50.510Z,95389.22
2022-08-20T02:14:16.870Z,95391.19
2022-08-20T02:16:43.239Z,95386.28
2022-08-20T02:19:18.872Z,95377.41
2022-08-20T02:21:46.346Z,95380.69
2022-08-20T02:24:12.718Z,95378.84
2022-08-20T02:26:39.064Z,95380.53
2022-08-20T02:29:05.441Z,95379.22
2022-08-20T02:31:34.777Z,95386.50
2022-08-20T02:34:14.809Z,95386.28
2022-08-20T02:36:47.771Z,95383.56
2022-08-20T02:39:14.123Z,95381.00
2022-08-20T02:41:40.474Z,95382.31
2022-08-20T02:44:07.322Z,95375.41
2022-08-20T02:46:33.662Z,95372.31
2022-08-20T02:49:00.022Z,95376.13
2022-08-20T02:51:30.430Z,95373.97
2022-08-20T02:53:57.122Z,95371.78
2022-08-20T02:56:23.502Z,95373.47
2022-08-20T02:58:49.856Z,95367.81
2022-08-20T03:01:16.231Z,95373.25
2022-08-20T03:03:42.620Z,95360.19
2022-08-20T03:06:09.101Z,95373.78
2022-08-20T03:08:35.504Z,95367.63
2022-08-20T03:11:01.864Z,95370.34
2022-08-20T03:13:28.226Z,95372.16
2022-08-20T03:15:58.578Z,95381.06
2022-08-20T03:18:25.499Z,95377.44
2022-08-20T03:20:52.226Z,95383.97
2022-08-20T03:23:18.722Z,95377.28
2022-08-20T03:25:45.075Z,95383.97
2022-08-20T03:28:11.426Z,95386.16
2022-08-20T03:30:37.787Z,95381.09
2022-08-20T03:33:04.162Z,95377.81
2022-08-20T03:35:30.511Z,95379.22
2022-08-20T03:37:57.092Z,95380.69
2022-08-20T03:40:23.503Z,95385.00
2022-08-20T03:42:49.886Z,95384.84
2022-08-20T03:45:20.406Z,95382.13
2022-08-20T03:47:46.983Z,95383.78
2022-08-20T03:50:14.856Z,95389.22
2022-08-20T03:52:49.631Z,95382.28
2022-08-20T03:55:15.988Z,95376.13
2022-08-20T03:57:42.325Z,95382.44
2022-08-20T04:00:08.670Z,95382.09
2022-08-20T04:02:35.047Z,95381.00
2022-08-20T04:05:01.407Z,95370.19
2022-08-20T04:07:27.827Z,95372.72
2022-08-20T04:09:54.227Z,95374.88
2022-08-20T04:12:20.573Z,95378.50
2022-08-20T04:14:47.372Z,95382.84
2022-08-20T04:17:13.744Z,95382.09
2022-08-20T04:19:40.420Z,95375.78
2022-08-20T04:22:06.780Z,95382.50
2022-08-20T04:24:33.132Z,95385.00
2022-08-20T04:26:59.486Z,95388.63
2022-08-20T04:29:25.849Z,95387.16
2022-08-20T04:31:58.654Z,95384.84
2022-08-20T04:34:25.019Z,95384.13
2022-08-20T04:36:51.378Z,95388.13
2022-08-20T04:39:17.739Z,95389.56
2022-08-20T04:41:44.089Z,95383.94
2022-08-20T04:44:10.453Z,95390.84
2022-08-20T04:46:36.816Z,95391.72
2022-08-20T04:49:03.185Z,95393.16
2022-08-20T04:51:29.558Z,95396.97
2022-08-20T04:53:58.103Z,95401.47
2022-08-20T04:56:24.578Z,95395.94
2022-08-20T04:58:51.017Z,95402.63
2022-08-20T05:01:17.458Z,95407.22
2022-08-20T05:03:43.925Z,95409.13
2022-08-20T05:06:10.298Z,95418.78
2022-08-20T05:08:36.646Z,95416.00
2022-08-20T05:11:32.706Z,95416.22
2022-08-20T05:13:49.347Z,95415.44
2022-08-20T05:16:15.726Z,95419.91
2022-08-20T05:18:42.086Z,95424.84
2022-08-20T05:21:08.438Z,95419.94
2022-08-20T05:23:34.799Z,95424.31
2022-08-20T05:26:01.155Z,95426.13
2022-08-20T05:28:27.516Z,95428.63
2022-08-20T05:30:53.867Z,95435.63
2022-08-20T05:33:20.242Z,95432.75
2022-08-20T05:35:46.592Z,95441.91
2022-08-20T05:38:12.945Z,95442.03
2022-08-20T05:40:39.308Z,95441.19
2022-08-20T05:43:05.654Z,95441.91
2022-08-20T05:45:32.020Z,95445.97
2022-08-20T05:47:58.446Z,95445.97
2022-08-20T05:50:27.754Z,95448.09
2022-08-20T05:52:54.604Z,95445.78
2022-08-20T05:55:21.119Z,95440.56
2022-08-20T05:57:47.566Z,95448.88
2022-08-20T06:00:13.935Z,95445.09
2022-08-20T06:02:40.500Z,95452.84
2022-08-20T06:05:06.978Z,95452.53
2022-08-20T06:07:33.446Z,95456.09
2022-08-20T06:09:59.823Z,95450.47
2022-08-20T06:12:26.184Z,95451.41
2022-08-20T06:14:52.546Z,95452.28
2022-08-20T06:17:18.913Z,95454.44
2022-08-20T06:19:48.623Z,95448.66
2022-08-20T06:22:19.825Z,95453.69
2022-08-20T06:24:52.653Z,95443.00
2022-08-20T06:27:19.000Z,95445.22
2022-08-20T06:29:45.351Z,95451.81
2022-08-20T06:32:11.728Z,95452.34
2022-08-20T06:34:38.087Z,95449.47
2022-08-20T06:37:17.101Z,95455.41
2022-08-20T06:39:43.528Z,95452.19
2022-08-20T06:42:09.910Z,95450.72
2022-08-20T06:44:36.283Z,95455.03
2022-08-20T06:47:02.643Z,95456.09
2022-08-20T06:49:28.998Z,95457.81
2022-08-20T06:52:01.719Z,95464.66
2022-08-20T06:54:28.642Z,95468.44
2022-08-20T06:56:55.922Z,95469.59
2022-08-20T06:59:22.269Z,95472.06
2022-08-20T07:01:48.622Z,95465.22
2022-08-20T07:04:14.978Z,95466.84
2022-08-20T07:06:41.336Z,95466.28
2022-08-20T07:09:07.698Z,95467.22
2022-08-20T07:11:34.052Z,95459.41
2022-08-20T07:14:00.423Z,95464.28
2022-08-20T07:16:26.775Z,95461.25
2022-08-20T07:18:53.127Z,95469.91
2022-08-20T07:21:19.485Z,95463.47
2022-08-20T07:23:45.831Z,95471.22
2022-08-20T07:26:12.183Z,95468.50
2022-08-20T07:28:38.544Z,95470.28
2022-08-20T07:31:13.765Z,95472.28
2022-08-20T07:33:42.460Z,95470.34
2022-08-20T07:36:10.998Z,95468.66
2022-08-20T07:38:37.360Z,95469.94
2022-08-20T07:41:03.720Z,95481.94
2022-08-20T07:43:30.065Z,95479.56
2022-08-20T07:45:56.422Z,95481.25
2022-08-20T07:48:28.049Z,95479.06
2022-08-20T07:50:57.993Z,95479.75
2022-08-20T07:53:24.335Z,95478.16
2022-08-20T07:55:58.721Z,95478.81
2022-08-20T07:58:33.074Z,95484.31
2022-08-20T08:01:00.025Z,95488.81
2022-08-20T08:03:39.356Z,95494.25
2022-08-20T08:06:12.795Z,95486.38
2022-08-20T08:08:40.856Z,95488.91
2022-08-20T08:11:07.216Z,95480.25
2022-08-20T08:13:33.586Z,95495.63
2022-08-20T08:15:59.955Z,95490.41
2022-08-20T08:18:30.039Z,95488.59
2022-08-20T08:20:58.223Z,95501.50
2022-08-20T08:23:31.971Z,95498.63
2022-08-20T08:25:58.699Z,95498.25
2022-08-20T08:28:25.062Z,95496.41
2022-08-20T08:30:51.430Z,95495.31
2022-08-20T08:33:17.790Z,95502.28
2022-08-20T08:35:44.157Z,95501.84
2022-08-20T08:38:14.339Z,95500.56
2022-08-20T08:40:40.886Z,95496.75
2022-08-20T08:43:07.498Z,95504.00
2022-08-20T08:45:33.858Z,95502.97
2022-08-20T08:48:00.206Z,95511.31
2022-08-20T08:50:50.136Z,95507.50
2022-08-20T08:53:12.948Z,95512.16
2022-08-20T08:55:39.319Z,95512.50
2022-08-20T08:58:16.736Z,95520.16
2022-08-20T09:00:50.750Z,95523.25
2022-08-20T09:03:23.650Z,95520.38
2022-08-20T09:05:50.027Z,95521.69
2022-08-20T09:08:17.233Z,95527.97
2022-08-20T09:10:43.702Z,95523.97
2022-08-20T09:13:10.059Z,95528.25
2022-08-20T09:15:36.415Z,95525.09
2022-08-20T09:18:02.769Z,95527.06
2022-08-20T09:20:29.118Z,95527.97
2022-08-20T09:22:55.557Z,95517.25
2022-08-20T09:25:21.942Z,95519.22
2022-08-20T09:27:48.314Z,95522.56
2022-08-20T09:30:16.830Z,95524.66
2022-08-20T09:32:44.850Z,95526.31
2022-08-20T09:35:11.215Z,95527.56
2022-08-20T09:37:38.013Z,95520.47
2022-08-20T09:40:04.536Z,95529.13
2022-08-20T09:42:30.942Z,95531.19
2022-08-20T09:44:57.290Z,95521.75
2022-08-20T09:47:23.642Z,95521.59
2022-08-20T09:49:49.995Z,95519.97
2022-08-20T09:52:16.351Z,95516.16
2022-08-20T09:54:46.431Z,95511.06
2022-08-20T09:57:13.154Z,95510.88
2022-08-20T09:59:39.507Z,95512.31
2022-08-20T10:02:05.944Z,95516.00
2022-08-20T10:04:32.326Z,95511.81
2022-08-20T10:06:58.678Z,95510.84
2022-08-20T10:09:25.031Z,95508.56
2022-08-20T10:11:51.369Z,95512.81
2022-08-20T10:14:17.732Z,95516.22
2022-08-20T10:16:44.089Z,95508.75
2022-08-20T10:19:10.443Z,95507.84
2022-08-20T10:21:38.996Z,95503.84
2022-08-20T10:24:05.767Z,95504.63
2022-08-20T10:26:32.134Z,95501.97
2022-08-20T10:28:58.482Z,95496.84
2022-08-20T10:31:24.894Z,95498.06
2022-08-20T10:33:51.241Z,95489.19
2022-08-20T10:36:17.606Z,95498.63
2022-08-20T10:38:43.947Z,95491.47
2022-08-20T10:41:11.395Z,95486.53
2022-08-20T10:43:37.747Z,95491.41
2022-08-20T10:46:04.089Z,95487.31
2022-08-20T10:48:30.438Z,95486.75
2022-08-20T10:50:56.804Z,95484.91
2022-08-20T10:53:23.160Z,95484.91
2022-08-20T10:55:49.521Z,95482.59
2022-08-20T10:58:15.889Z,95482.59
2022-08-20T11:00:42.244Z,95478.28
2022-08-20T11:03:08.633Z,95469.56
2022-08-20T11:05:34.993Z,95475.56
2022-08-20T11:08:01.509Z,95475.94
2022-08-20T11:10:28.038Z,95469.97
2022-08-20T11:12:54.403Z,95470.84
2022-08-20T11:15:20.763Z,95472.44
2022-08-20T11:17:47.109Z,95470.66
2022-08-20T11:20:13.474Z,95465.59
2022-08-20T11:22:39.837Z,95465.75
2022-08-20T11:25:06.208Z,95469.41
2022-08-20T11:27:32.581Z,95464.31
2022-08-20T11:29:58.935Z,95465.41
2022-08-20T11:32:25.295Z,95459.44
2022-08-20T11:34:51.657Z,95464.53
2022-08-20T11:37:18.007Z,95457.44
2022-08-20T11:39:44.440Z,95458.50
2022-08-20T11:42:10.819Z,95460.16
2022-08-20T11:44:37.187Z,95453.06
2022-08-20T11:47:03.553Z,95464.31
2022-08-20T11:49:29.912Z,95460.34
2022-08-20T11:51:56.268Z,95463.78
2022-08-20T11:54:22.620Z,95454.34
2022-08-20T11:56:48.966Z,95451.63
2022-08-20T11:59:15.502Z,95456.00
2022-08-20T12:01:41.854Z,95461.06
2022-08-20T12:04:28.188Z,95457.78
2022-08-20T12:06:55.096Z,95458.72
2022-08-20T12:09:24.754Z,95460.19
2022-08-20T12:11:51.274Z,95461.44
2022-08-20T12:14:17.620Z,95463.28
2022-08-20T12:16:44.004Z,95460.00
2022-08-20T12:19:10.367Z,95462.91
2022-08-20T12:21:36.730Z,95454.91
2022-08-20T12:24:03.091Z,95461.44
2022-08-20T12:26:29.450Z,95452.91
2022-08-20T12:28:55.810Z,95458.16
2022-08-20T12:31:22.158Z,95455.28
2022-08-20T12:33:48.502Z,95459.28
2022-08-20T12:36:14.857Z,95462.34
2022-08-20T12:38:41.210Z,95458.19
2022-08-20T12:41:07.554Z,95455.66
2022-08-20T12:43:33.927Z,95451.66
2022-08-20T12:46:00.290Z,95453.63
2022-08-20T12:48:26.648Z,95453.28
2022-08-20T12:50:53.006Z,95455.63
2022-08-20T12:53:19.369Z,95457.09
2022-08-20T12:55:45.746Z,95453.63
2022-08-20T12:58:12.162Z,95453.81
2022-08-20T13:00:38.508Z,95458.00
2022-08-20T13:03:04.926Z,95460.53
2022-08-20T13:05:31.283Z,95452.91
2022-08-20T13:07:57.645Z,95457.47
2022-08-20T13:10:24.039Z,95450.00
2022-08-20T13:12:50.403Z,95455.47
2022-08-20T13:15:16.757Z,95448.56
2022-08-20T13:17:43.115Z,95450.91
2022-08-20T13:20:09.504Z,95447.13
2022-08-20T13:22:35.876Z,95443.28
2022-08-20T13:25:02.234Z,95455.78
2022-08-20T13:27:28.709Z,95451.63
2022-08-20T13:29:58.366Z,95440.56
2022-08-20T13:32:25.311Z,95435.84
2022-08-20T13:34:51.665Z,95442.22
2022-08-20T13:37:20.795Z,95438.59
2022-08-20T13:39:50.958Z,95434.97
2022-08-20T13:42:17.365Z,95428.25
2022-08-20T13:44:43.734Z,95434.78
2022-08-20T13:47:10.094Z,95424.59
2022-08-20T13:49:36.449Z,95427.84
2022-08-20T13:52:02.807Z,95424.03
2022-08-20T13:54:30.059Z,95425.31
2022-08-20T13:56:56.862Z,95426.41
2022-08-20T13:59:23.232Z,95423.34
2022-08-20T14:01:49.653Z,95426.25
2022-08-20T14:04:16.047Z,95414.63
2022-08-20T14:06:42.410Z,95414.63
2022-08-20T14:09:08.779Z,95419.34
2022-08-20T14:11:35.131Z,95431.31
2022-08-20T14:14:01.480Z,95427.50
2022-08-20T14:16:29.011Z,95432.41
2022-08-20T14:18:56.709Z,95423.50
2022-08-20T14:21:23.243Z,95420.78
2022-08-20T14:23:49.599Z,95420.25
2022-08-20T14:26:15.950Z,95420.63
2022-08-20T14:28:42.309Z,95421.50
2022-08-20T14:31:08.667Z,95418.44
2022-08-20T14:33:36.172Z,95416.25
2022-08-20T14:36:02.816Z,95417.88
2022-08-20T14:38:29.164Z,95416.44
2022-08-20T14:40:55.514Z,95417.16
2022-08-20T14:43:21.857Z,95422.44
2022-08-20T14:45:48.209Z,95428.78
2022-08-20T14:48:14.572Z,95429.91
2022-08-20T14:50:40.926Z,95426.63
2022-08-20T14:53:07.317Z,95429.16
2022-08-20T14:55:33.688Z,95426.63
2022-08-20T14:58:00.038Z,95421.19
2022-08-20T15:00:26.381Z,95416.81
2022-08-20T15:02:52.734Z,95419.16
2022-08-20T15:05:19.102Z,95412.44
2022-08-20T15:07:45.447Z,95414.63
2022-08-20T15:10:13.613Z,95412.09
2022-08-20T15:12:39.970Z,95410.63
2022-08-20T15:15:15.975Z,95406.47
2022-08-20T15:17:42.551Z,95407.00
2022-08-20T15:20:08.904Z,95405.19
2022-08-20T15:22:46.194Z,95403.72
2022-08-20T15:25:12.590Z,95398.28
2022-08-20T15:27:39.684Z,95393.19
2022-08-20T15:30:06.060Z,95388.31
2022-08-20T15:32:32.424Z,95384.84
2022-08-20T15:34:58.778Z,95373.25
2022-08-20T15:37:25.140Z,95382.50
2022-08-20T15:39:51.521Z,95376.88
2022-08-20T15:42:17.913Z,95375.59
2022-08-20T15:44:44.284Z,95374.88
2022-08-20T15:47:10.633Z,95378.19
2022-08-20T15:49:36.983Z,95379.44
2022-08-20T15:52:03.327Z,95378.50
2022-08-20T15:54:29.685Z,95371.25
2022-08-20T15:56:56.041Z,95370.34
2022-08-20T15:59:22.392Z,95365.97
2022-08-20T16:01:48.850Z,95366.72
2022-08-20T16:04:15.272Z,95373.44
2022-08-20T16:06:41.619Z,95370.00
2022-08-20T16:09:07.979Z,95375.06
2022-08-20T16:11:34.336Z,95373.59
2022-08-20T16:14:00.701Z,95372.53
2022-08-20T16:16:27.039Z,95375.06
2022-08-20T16:18:53.387Z,95378.69
2022-08-20T16:21:19.738Z,95381.97
2022-08-20T16:23:46.174Z,95382.13
2022-08-20T16:26:12.530Z,95393.22
2022-08-20T16:28:38.890Z,95394.28
2022-08-20T16:31:05.244Z,95392.84
2022-08-20T16:33:31.594Z,95387.41
2022-08-20T16:35:57.970Z,95381.22
2022-08-20T16:38:24.339Z,95377.59
2022-08-20T16:40:50.683Z,95379.03
2022-08-20T16:43:17.027Z,95379.78
2022-08-20T16:45:45.659Z,95380.69
2022-08-20T16:48:17.871Z,95384.16
2022-08-20T16:50:44.223Z,95387.75
2022-08-20T16:53:10.572Z,95377.94
2022-08-20T16:55:36.932Z,95377.59
2022-08-20T16:58:03.299Z,95390.31
2022-08-20T17:00:29.757Z,95381.97
2022-08-20T17:02:56.205Z,95382.13
2022-08-20T17:05:22.665Z,95377.06
2022-08-20T17:07:51.403Z,95374.34
2022-08-20T17:10:19.332Z,95375.97
2022-08-20T17:12:45.709Z,95369.06
2022-08-20T17:15:12.090Z,95367.78
2022-08-20T17:17:38.453Z,95368.69
2022-08-20T17:20:04.813Z,95361.81
2022-08-20T17:22:31.535Z,95368.16
2022-08-20T17:24:57.882Z,95368.16
2022-08-20T17:27:24.239Z,95371.44
2022-08-20T17:29:50.603Z,95365.63
2022-08-20T17:32:16.957Z,95370.88
2022-08-20T17:34:43.321Z,95362.19
2022-08-20T17:37:09.681Z,95368.72
2022-08-20T17:39:36.083Z,95359.25
2022-08-20T17:42:02.477Z,95359.97
2022-08-20T17:44:28.876Z,95362.00
2022-08-20T17:46:55.234Z,95356.91
2022-08-20T17:49:21.660Z,95362.34
2022-08-20T17:51:48.019Z,95358.72
2022-08-20T17:54:14.386Z,95347.66
2022-08-20T17:56:40.736Z,95358.00
2022-08-20T17:59:07.097Z,95352.56
2022-08-20T18:01:36.921Z,95352.19
2022-08-20T18:04:03.396Z,95348.94
2022-08-20T18:06:30.889Z,95352.19
2022-08-20T18:08:57.459Z,95355.47
2022-08-20T18:11:23.821Z,95346.38
2022-08-20T18:13:50.190Z,95357.09
2022-08-20T18:16:16.833Z,95351.47
2022-08-20T18:18:52.951Z,95353.28
2022-08-20T18:21:23.134Z,95355.28
2022-08-20T18:23:49.487Z,95355.28
2022-08-20T18:26:15.866Z,95350.03
2022-08-20T18:28:42.209Z,95352.38
2022-08-20T18:31:08.563Z,95353.28
2022-08-20T18:33:34.923Z,95358.00
2022-08-20T18:36:01.274Z,95351.47
2022-08-20T18:38:27.640Z,95359.28
2022-08-20T18:40:55.311Z,95353.84
2022-08-20T18:43:21.806Z,95356.19
2022-08-20T18:45:48.150Z,95358.00
2022-08-20T18:48:14.510Z,95364.16
2022-08-20T18:50:40.863Z,95364.72
2022-08-20T18:53:07.229Z,95365.81
2022-08-20T18:55:33.589Z,95360.16
2022-08-20T18:57:59.936Z,95361.25
2022-08-20T19:00:30.481Z,95363.44
2022-08-20T19:02:57.182Z,95365.81
2022-08-20T19:05:23.630Z,95367.81
2022-08-20T19:07:49.978Z,95370.72
2022-08-20T19:10:27.823Z,95371.59
2022-08-20T19:12:54.510Z,95380.31
2022-08-20T19:15:20.859Z,95370.34
2022-08-20T19:17:47.214Z,95375.78
2022-08-20T19:20:13.576Z,95377.22
2022-08-20T19:22:39.948Z,95370.34
2022-08-20T19:25:06.341Z,95377.59
2022-08-20T19:27:32.736Z,95372.50
2022-08-20T19:29:59.095Z,95373.44
2022-08-20T19:32:25.453Z,95371.81
2022-08-20T19:34:51.810Z,95369.63
2022-08-20T19:37:34.336Z,95368.53
2022-08-20T19:40:02.302Z,95366.53
2022-08-20T19:42:31.027Z,95368.53
2022-08-20T19:44:57.388Z,95375.25
2022-08-20T19:47:23.742Z,95381.22
2022-08-20T19:49:50.095Z,95383.22
2022-08-20T19:52:16.459Z,95375.97
2022-08-20T19:54:42.814Z,95382.66
2022-08-20T19:57:09.186Z,95378.34
2022-08-20T19:59:35.565Z,95382.69
2022-08-20T20:02:03.939Z,95378.34
2022-08-20T20:04:55.764Z,95392.50
2022-08-20T20:07:24.312Z,95391.78
2022-08-20T20:09:50.691Z,95386.66
2022-08-20T20:12:22.574Z,95388.13
2022-08-20T20:14:49.471Z,95388.16
2022-08-20T20:17:21.004Z,95389.41
2022-08-20T20:19:49.266Z,95396.84
2022-08-20T20:22:19.210Z,95395.22
2022-08-20T20:24:46.788Z,95394.28
2022-08-20T20:27:13.661Z,95389.59
2022-08-20T20:29:46.345Z,95389.94
2022-08-20T20:32:12.703Z,95390.66
2022-08-20T20:34:54.943Z,95380.00
2022-08-20T20:37:42.619Z,95387.78
2022-08-20T20:40:12.428Z,95380.50
2022-08-20T20:42:45.946Z,95383.03
2022-08-20T20:45:12.297Z,95378.91
2022-08-20T20:47:38.651Z,95381.59
2022-08-20T20:50:05.028Z,95382.16
2022-08-20T20:52:31.400Z,95384.50
2022-08-20T20:54:57.759Z,95377.28
2022-08-20T20:57:38.110Z,95386.13
2022-08-20T21:00:05.197Z,95383.59
2022-08-20T21:02:33.141Z,95383.59
2022-08-20T21:04:59.510Z,95380.69
2022-08-20T21:07:25.883Z,95380.69
2022-08-20T21:09:52.238Z,95378.69
2022-08-20T21:12:18.591Z,95384.50
2022-08-20T21:14:44.951Z,95382.13
2022-08-20T21:17:11.319Z,95384.84
2022-08-20T21:19:44.864Z,95385.41
2022-08-20T21:22:11.566Z,95380.72
2022-08-20T21:24:37.927Z,95382.31
2022-08-20T21:27:04.306Z,95385.03
2022-08-20T21:29:32.632Z,95387.59
2022-08-20T21:31:59.167Z,95382.50
2022-08-20T21:34:25.519Z,95365.97
2022-08-20T21:36:51.882Z,95379.22
2022-08-20T21:39:20.460Z,95380.50
2022-08-20T21:41:46.813Z,95374.53
2022-08-20T21:44:13.165Z,95371.25
2022-08-20T21:46:39.509Z,95384.13
2022-08-20T21:49:05.885Z,95384.88
2022-08-20T21:51:32.474Z,95381.22
2022-08-20T21:53:59.517Z,95383.06
2022-08-20T21:56:25.872Z,95384.13
2022-08-20T21:58:54.257Z,95381.03
2022-08-20T22:01:21.687Z,95382.50
2022-08-20T22:03:49.483Z,95375.78
2022-08-20T22:06:16.859Z,95387.59
2022-08-20T22:08:43.229Z,95379.44
2022-08-20T22:11:09.610Z,95389.59
2022-08-20T22:13:35.949Z,95380.00
2022-08-20T22:16:02.302Z,95379.97
2022-08-20T22:18:28.667Z,95378.88
2022-08-20T22:20:55.033Z,95377.22
2022-08-20T22:23:21.394Z,95377.97
2022-08-20T22:25:47.739Z,95382.50
2022-08-20T22:28:14.100Z,95374.69
2022-08-20T22:30:42.346Z,95378.34
2022-08-20T22:33:08.976Z,95377.59
2022-08-20T22:35:35.364Z,95375.41
2022-08-20T22:38:01.727Z,95383.22
2022-08-20T22:40:28.080Z,95370.69
2022-08-20T22:42:54.528Z,95371.59
2022-08-20T22:45:21.071Z,95371.97
2022-08-20T22:47:47.425Z,95366.16
2022-08-20T22:50:13.793Z,95365.25
2022-08-20T22:52:40.154Z,95357.25
2022-08-20T22:55:06.511Z,95355.44
2022-08-20T22:57:34.166Z,95354.91
2022-08-20T23:00:00.806Z,95355.63
2022-08-20T23:02:27.150Z,95351.09
2022-08-20T23:04:53.511Z,95353.28
2022-08-20T23:07:19.923Z,95350.00
2022-08-20T23:09:46.290Z,95356.53
2022-08-20T23:12:12.652Z,95346.38
2022-08-20T23:14:39.009Z,95348.38
2022-08-20T23:17:07.293Z,95343.66
2022-08-20T23:19:35.425Z,95338.03
2022-08-20T23:22:01.783Z,95346.56
2022-08-20T23:24:28.135Z,95343.31
2022-08-20T23:26:54.485Z,95340.59
2022-08-20T23:29:22.550Z,95333.28
2022-08-20T23:31:52.065Z,95342.03
2022-08-20T23:34:18.412Z,95339.88
2022-08-20T23:36:44.775Z,95344.03
2022-08-20T23:39:11.121Z,95335.84
2022-08-20T23:41:37.566Z,95330.25
2022-08-20T23:44:25.990Z,95335.13
2022-08-20T23:46:53.338Z,95339.88
2022-08-20T23:49:21.051Z,95332.19
2022-08-20T23:51:47.414Z,95338.59
2022-08-20T23:54:13.788Z,95336.56
2022-08-20T23:56:40.141Z,95332.94
2022-08-20T23:59:06.491Z,95329.16
